Terminal Aerodrome Forecast
Issued by NWS

Home | Current Version | Previous Version | Text Only | Print | Product List | Glossary Off
Versions: 1 2 3 4 5 6 7 8 9 10 11 12 13

000
FTUS43 KICT 272328
TAFHUT
TAF
KHUT 272328Z 2800/2824 23006KT P6SM BKN100
     FM280200 18008KT P6SM SCT100
     FM281500 09007KT P6SM SCT250=

USA.gov is the U.S. government's official web portal to all federal, state and local government web resources and services.